createdAt,value
2023-03-21T00:00:45.002Z,72.46
2023-03-21T00:02:07.277Z,72.59
2023-03-21T00:03:28.979Z,72.55
2023-03-21T00:04:53.653Z,72.60
2023-03-21T00:06:17.013Z,72.72
2023-03-21T00:07:39.359Z,72.71
2023-03-21T00:09:04.093Z,72.63
2023-03-21T00:10:39.132Z,72.82
2023-03-21T00:12:07.503Z,72.78
2023-03-21T00:13:32.845Z,72.74
2023-03-21T00:14:56.408Z,72.78
2023-03-21T00:16:21.858Z,72.87
2023-03-21T00:17:50.943Z,72.65
2023-03-21T00:19:14.765Z,72.88
2023-03-21T00:20:37.956Z,72.90
2023-03-21T00:22:08.153Z,72.65
2023-03-21T00:23:34.167Z,72.88
2023-03-21T00:24:56.918Z,72.79
2023-03-21T00:26:18.552Z,72.77
2023-03-21T00:27:57.192Z,72.67
2023-03-21T00:29:24.925Z,72.51
2023-03-21T00:30:46.444Z,72.67
2023-03-21T00:32:09.927Z,72.56
2023-03-21T00:33:34.062Z,72.66
2023-03-21T00:35:16.409Z,72.80
2023-03-21T00:36:38.322Z,72.75
2023-03-21T00:38:01.304Z,72.98
2023-03-21T00:39:23.417Z,72.73
2023-03-21T00:40:49.272Z,72.89
2023-03-21T00:42:11.374Z,72.99
2023-03-21T00:43:33.803Z,73.09
2023-03-21T00:44:59.310Z,72.99
2023-03-21T00:46:23.298Z,72.93
2023-03-21T00:47:44.592Z,72.62
2023-03-21T00:49:07.466Z,73.08
2023-03-21T00:50:28.485Z,73.08
2023-03-21T00:51:53.362Z,73.04
2023-03-21T00:53:16.615Z,73.17
2023-03-21T00:54:38.024Z,73.29
2023-03-21T00:56:00.115Z,73.17
2023-03-21T00:57:37.609Z,73.12
2023-03-21T00:59:02.793Z,73.12
2023-03-21T01:00:24.360Z,72.93
2023-03-21T01:01:47.008Z,73.05
2023-03-21T01:03:23.278Z,72.98
2023-03-21T01:04:46.809Z,73.03
2023-03-21T01:06:09.384Z,73.26
2023-03-21T01:07:31.289Z,73.26
2023-03-21T01:08:53.733Z,73.50
2023-03-21T01:10:16.375Z,73.74
2023-03-21T01:11:38.430Z,74.07
2023-03-21T01:12:59.239Z,74.03
2023-03-21T01:14:26.437Z,74.20
2023-03-21T01:15:50.061Z,74.22
2023-03-21T01:17:12.265Z,74.47
2023-03-21T01:18:35.347Z,74.59
2023-03-21T01:19:57.607Z,74.72
2023-03-21T01:21:20.489Z,74.47
2023-03-21T01:22:41.670Z,74.61
2023-03-21T01:24:04.035Z,74.58
2023-03-21T01:25:25.355Z,74.58
2023-03-21T01:26:47.638Z,74.87
2023-03-21T01:28:09.882Z,75.07
2023-03-21T01:29:33.537Z,75.09
2023-03-21T01:30:54.901Z,75.11
2023-03-21T01:32:17.013Z,75.23
2023-03-21T01:33:38.237Z,75.20
2023-03-21T01:35:00.765Z,75.68
2023-03-21T01:36:24.340Z,75.73
2023-03-21T01:37:50.302Z,75.59
2023-03-21T01:39:12.399Z,75.93
2023-03-21T01:40:33.854Z,75.96
2023-03-21T01:42:06.894Z,75.69
2023-03-21T01:43:30.392Z,75.62
2023-03-21T01:45:00.691Z,76.08
2023-03-21T01:46:51.533Z,76.41
2023-03-21T01:48:40.321Z,76.21
2023-03-21T01:50:05.011Z,76.44
2023-03-21T01:51:47.113Z,76.55
2023-03-21T01:53:13.995Z,76.71
2023-03-21T01:54:40.053Z,76.90
2023-03-21T01:56:07.095Z,77.09
2023-03-21T01:57:58.562Z,77.03
2023-03-21T01:59:30.531Z,77.01
2023-03-21T02:01:28.941Z,76.83
2023-03-21T02:03:06.173Z,76.83
2023-03-21T02:04:41.327Z,76.25
2023-03-21T02:06:16.050Z,76.44
2023-03-21T02:07:44.398Z,76.52
2023-03-21T02:09:16.089Z,76.37
2023-03-21T02:10:37.777Z,76.50
2023-03-21T02:12:01.490Z,76.67
2023-03-21T02:13:25.435Z,76.76
2023-03-21T02:14:50.324Z,76.81
2023-03-21T02:16:46.875Z,76.58
2023-03-21T02:18:18.681Z,76.48
2023-03-21T02:20:34.769Z,76.69
2023-03-21T02:22:28.394Z,76.63
2023-03-21T02:24:12.787Z,76.98
2023-03-21T02:26:10.335Z,76.88
2023-03-21T02:27:35.192Z,76.99
2023-03-21T02:29:02.968Z,76.99
2023-03-21T02:31:15.903Z,77.17
2023-03-21T02:33:04.619Z,77.21
2023-03-21T02:34:54.880Z,77.17
2023-03-21T02:36:26.489Z,77.32
2023-03-21T02:38:00.503Z,77.30
2023-03-21T02:39:28.495Z,77.44
2023-03-21T02:41:03.375Z,77.26
2023-03-21T02:42:36.011Z,77.08
2023-03-21T02:44:06.991Z,77.09
2023-03-21T02:45:36.308Z,76.91
2023-03-21T02:47:06.430Z,77.13
2023-03-21T02:48:49.703Z,77.33
2023-03-21T02:50:17.708Z,77.60
2023-03-21T02:51:42.072Z,77.67
2023-03-21T02:53:08.823Z,77.56
2023-03-21T02:54:47.292Z,77.70
2023-03-21T02:56:11.236Z,77.66
2023-03-21T02:57:43.150Z,77.95
2023-03-21T02:59:07.972Z,77.83
2023-03-21T03:00:33.967Z,77.98
2023-03-21T03:01:57.061Z,78.06
2023-03-21T03:03:33.014Z,78.19
2023-03-21T03:04:56.941Z,78.23
2023-03-21T03:06:24.256Z,78.23
2023-03-21T03:07:58.354Z,78.24
2023-03-21T03:09:32.606Z,78.19
2023-03-21T03:11:10.200Z,78.16
2023-03-21T03:12:44.501Z,78.01
2023-03-21T03:14:50.034Z,78.21
2023-03-21T03:16:25.903Z,78.21
2023-03-21T03:17:55.632Z,77.98
2023-03-21T03:19:26.215Z,78.20
2023-03-21T03:21:01.092Z,78.36
2023-03-21T03:22:27.100Z,78.23
2023-03-21T03:23:54.273Z,78.28
2023-03-21T03:25:36.052Z,78.35
2023-03-21T03:27:08.929Z,78.01
2023-03-21T03:28:36.621Z,78.02
2023-03-21T03:30:05.217Z,77.95
2023-03-21T03:31:33.312Z,77.68
2023-03-21T03:33:01.292Z,77.89
2023-03-21T03:34:28.736Z,78.04
2023-03-21T03:36:04.471Z,78.18
2023-03-21T03:37:33.508Z,78.06
2023-03-21T03:38:56.408Z,77.99
2023-03-21T03:40:26.660Z,78.15
2023-03-21T03:42:15.449Z,78.00
2023-03-21T03:43:52.419Z,78.03
2023-03-21T03:45:14.949Z,78.00
2023-03-21T03:46:45.065Z,77.85
2023-03-21T03:48:14.145Z,78.08
2023-03-21T03:49:42.884Z,77.98
2023-03-21T03:51:10.103Z,78.17
2023-03-21T03:52:59.924Z,77.95
2023-03-21T03:54:29.986Z,77.71
2023-03-21T03:55:55.827Z,77.76
2023-03-21T03:57:18.973Z,77.80
2023-03-21T03:58:45.964Z,77.73
2023-03-21T04:00:13.083Z,77.76
2023-03-21T04:01:43.735Z,77.76
2023-03-21T04:03:07.393Z,77.89
2023-03-21T04:04:31.944Z,77.70
2023-03-21T04:05:54.202Z,77.74
2023-03-21T04:07:16.746Z,77.93
2023-03-21T04:08:37.961Z,78.09
2023-03-21T04:10:00.555Z,77.89
2023-03-21T04:11:24.989Z,77.82
2023-03-21T04:12:48.062Z,77.76
2023-03-21T04:14:44.457Z,77.63
2023-03-21T04:16:09.079Z,77.67
2023-03-21T04:17:33.507Z,77.74
2023-03-21T04:18:57.078Z,77.54
2023-03-21T04:20:30.298Z,77.47
2023-03-21T04:21:58.384Z,77.53
2023-03-21T04:23:21.112Z,77.70
2023-03-21T04:24:44.978Z,77.76
2023-03-21T04:26:08.518Z,77.60
2023-03-21T04:27:36.040Z,77.74
2023-03-21T04:29:17.888Z,77.82
2023-03-21T04:31:03.515Z,77.83
2023-03-21T04:32:39.670Z,77.80
2023-03-21T04:34:12.784Z,77.62
2023-03-21T04:35:39.863Z,77.76
2023-03-21T04:37:03.610Z,77.82
2023-03-21T04:38:30.813Z,77.58
2023-03-21T04:39:56.803Z,77.89
2023-03-21T04:41:18.242Z,77.95
2023-03-21T04:42:42.000Z,77.98
2023-03-21T04:44:04.299Z,77.95
2023-03-21T04:45:26.660Z,77.87
2023-03-21T04:46:47.595Z,77.84
2023-03-21T04:48:10.515Z,77.80
2023-03-21T04:49:32.665Z,77.58
2023-03-21T04:50:54.635Z,77.57
2023-03-21T04:52:16.861Z,77.52
2023-03-21T04:53:39.696Z,77.51
2023-03-21T04:55:02.181Z,77.59
2023-03-21T04:56:30.742Z,77.69
2023-03-21T04:57:54.585Z,77.70
2023-03-21T04:59:17.347Z,77.66
2023-03-21T05:00:40.418Z,77.71
2023-03-21T05:02:02.723Z,77.68
2023-03-21T05:03:25.441Z,77.64
2023-03-21T05:04:47.414Z,77.38
2023-03-21T05:06:10.931Z,77.18
2023-03-21T05:07:33.108Z,77.52
2023-03-21T05:08:54.801Z,77.45
2023-03-21T05:10:17.650Z,77.67
2023-03-21T05:11:40.451Z,77.84
2023-03-21T05:13:04.791Z,77.89
2023-03-21T05:14:28.661Z,77.85
2023-03-21T05:15:50.809Z,78.00
2023-03-21T05:17:25.068Z,77.97
2023-03-21T05:18:50.794Z,77.91
2023-03-21T05:20:16.174Z,77.97
2023-03-21T05:21:44.055Z,77.79
2023-03-21T05:23:11.992Z,77.58
2023-03-21T05:24:34.572Z,77.61
2023-03-21T05:25:56.997Z,77.41
2023-03-21T05:27:36.322Z,77.38
2023-03-21T05:29:05.918Z,77.51
2023-03-21T05:30:28.233Z,77.35
2023-03-21T05:31:54.105Z,77.38
2023-03-21T05:33:16.517Z,77.28
2023-03-21T05:34:38.675Z,77.27
2023-03-21T05:35:59.744Z,76.93
2023-03-21T05:37:25.819Z,77.13
2023-03-21T05:38:47.084Z,77.00
2023-03-21T05:40:11.323Z,77.17
2023-03-21T05:41:37.082Z,77.07
2023-03-21T05:43:00.184Z,76.70
2023-03-21T05:44:22.789Z,76.40
2023-03-21T05:45:45.324Z,76.54
2023-03-21T05:47:08.533Z,76.38
2023-03-21T05:48:38.511Z,76.53
2023-03-21T05:50:11.337Z,76.19
2023-03-21T05:51:35.481Z,76.14
2023-03-21T05:53:00.270Z,76.02
2023-03-21T05:54:22.646Z,76.20
2023-03-21T05:55:45.729Z,76.32
2023-03-21T05:57:19.282Z,76.31
2023-03-21T05:59:00.896Z,76.40
2023-03-21T06:00:27.639Z,76.29
2023-03-21T06:02:23.474Z,76.15
2023-03-21T06:03:45.065Z,76.19
2023-03-21T06:05:17.724Z,76.06
2023-03-21T06:06:39.093Z,75.74
2023-03-21T06:08:01.455Z,75.80
2023-03-21T06:09:23.514Z,75.79
2023-03-21T06:10:50.704Z,75.69
2023-03-21T06:12:14.507Z,75.44
2023-03-21T06:13:48.430Z,75.42
2023-03-21T06:15:11.751Z,75.35
2023-03-21T06:16:47.224Z,75.22
2023-03-21T06:18:09.331Z,75.11
2023-03-21T06:19:34.013Z,74.88
2023-03-21T06:21:03.547Z,74.97
2023-03-21T06:22:27.270Z,75.03
2023-03-21T06:23:51.782Z,74.78
2023-03-21T06:25:12.812Z,74.47
2023-03-21T06:26:35.793Z,74.71
2023-03-21T06:27:59.904Z,74.76
2023-03-21T06:29:22.374Z,74.44
2023-03-21T06:30:45.489Z,74.33
2023-03-21T06:32:28.865Z,74.25
2023-03-21T06:33:57.554Z,74.34
2023-03-21T06:35:20.104Z,73.98
2023-03-21T06:36:45.105Z,74.05
2023-03-21T06:38:08.649Z,74.18
2023-03-21T06:39:31.327Z,74.28
2023-03-21T06:40:53.776Z,74.26
2023-03-21T06:42:18.519Z,74.11
2023-03-21T06:43:41.043Z,74.18
2023-03-21T06:45:03.631Z,73.98
2023-03-21T06:46:26.407Z,73.94
2023-03-21T06:47:49.892Z,73.95
2023-03-21T06:49:26.154Z,73.81
2023-03-21T06:50:50.556Z,73.81
2023-03-21T06:52:14.252Z,73.73
2023-03-21T06:53:37.300Z,73.64
2023-03-21T06:55:29.080Z,73.39
2023-03-21T06:56:54.343Z,73.27
2023-03-21T06:58:21.965Z,73.19
2023-03-21T06:59:44.227Z,72.83
2023-03-21T07:01:12.132Z,73.02
2023-03-21T07:02:46.602Z,72.98
2023-03-21T07:04:15.308Z,73.10
2023-03-21T07:05:38.409Z,72.93
2023-03-21T07:07:03.950Z,73.00
2023-03-21T07:08:27.334Z,72.67
2023-03-21T07:09:52.050Z,72.29
2023-03-21T07:11:14.052Z,72.37
2023-03-21T07:12:36.956Z,72.20
2023-03-21T07:14:16.067Z,72.21
2023-03-21T07:15:39.084Z,72.08
2023-03-21T07:17:10.675Z,72.35
2023-03-21T07:18:36.772Z,72.22
2023-03-21T07:20:07.284Z,72.17
2023-03-21T07:21:29.936Z,72.00
2023-03-21T07:22:54.697Z,71.88
2023-03-21T07:24:23.921Z,71.78
2023-03-21T07:25:45.897Z,71.62
2023-03-21T07:27:11.446Z,71.68
2023-03-21T07:28:34.772Z,71.74
2023-03-21T07:29:57.641Z,71.77
2023-03-21T07:31:22.151Z,71.97
2023-03-21T07:32:45.711Z,71.68
2023-03-21T07:34:10.479Z,71.79
2023-03-21T07:35:40.546Z,71.11
2023-03-21T07:37:03.338Z,71.22
2023-03-21T07:38:27.897Z,71.27
2023-03-21T07:39:50.724Z,71.36
2023-03-21T07:41:13.506Z,71.46
2023-03-21T07:42:39.549Z,70.94
2023-03-21T07:44:02.856Z,71.05
2023-03-21T07:45:29.645Z,71.03
2023-03-21T07:46:59.839Z,71.13
2023-03-21T07:48:23.141Z,71.55
2023-03-21T07:49:46.037Z,71.47
2023-03-21T07:51:13.636Z,71.44
2023-03-21T07:52:36.295Z,71.65
2023-03-21T07:54:02.621Z,71.26
2023-03-21T07:55:25.223Z,71.52
2023-03-21T07:56:51.221Z,71.68
2023-03-21T07:58:15.120Z,71.56
2023-03-21T07:59:39.839Z,71.79
2023-03-21T08:01:03.003Z,71.55
2023-03-21T08:02:28.047Z,71.47
2023-03-21T08:03:59.232Z,71.18
2023-03-21T08:05:31.644Z,71.20
2023-03-21T08:07:07.723Z,71.36
2023-03-21T08:08:31.772Z,71.19
2023-03-21T08:09:58.771Z,71.16
2023-03-21T08:11:27.082Z,71.21
2023-03-21T08:12:55.757Z,71.27
2023-03-21T08:14:23.746Z,71.26
2023-03-21T08:15:50.213Z,70.77
2023-03-21T08:17:12.390Z,70.90
2023-03-21T08:18:38.081Z,70.91
2023-03-21T08:20:02.712Z,70.78
2023-03-21T08:21:27.701Z,70.52
2023-03-21T08:22:52.285Z,70.33
2023-03-21T08:24:14.805Z,69.94
2023-03-21T08:25:37.630Z,70.07
2023-03-21T08:27:00.413Z,70.39
2023-03-21T08:28:30.144Z,70.50
2023-03-21T08:30:01.975Z,70.17
2023-03-21T08:31:27.012Z,70.02
2023-03-21T08:33:00.873Z,69.45
2023-03-21T08:34:24.680Z,69.18
2023-03-21T08:35:57.050Z,68.83
2023-03-21T08:37:20.759Z,68.77
2023-03-21T08:38:54.240Z,69.10
2023-03-21T08:40:26.920Z,68.87
2023-03-21T08:41:53.033Z,68.70
2023-03-21T08:43:18.669Z,68.40
2023-03-21T08:44:41.890Z,68.28
2023-03-21T08:46:06.024Z,68.15
2023-03-21T08:47:28.820Z,67.66
2023-03-21T08:48:51.601Z,67.43
2023-03-21T08:50:16.396Z,67.26
2023-03-21T08:51:43.436Z,66.99
2023-03-21T08:53:05.591Z,67.04
2023-03-21T08:54:31.541Z,66.94
2023-03-21T08:55:56.020Z,67.03
2023-03-21T08:57:22.631Z,66.73
2023-03-21T08:58:47.962Z,66.49
2023-03-21T09:00:14.795Z,66.24
2023-03-21T09:01:39.571Z,65.85
2023-03-21T09:03:02.356Z,65.69
2023-03-21T09:04:26.239Z,65.71
2023-03-21T09:05:48.769Z,65.70
2023-03-21T09:07:11.382Z,65.89
2023-03-21T09:08:34.199Z,66.07
2023-03-21T09:10:19.082Z,65.55
2023-03-21T09:11:42.040Z,65.75
2023-03-21T09:13:07.505Z,65.11
2023-03-21T09:14:30.297Z,65.32
2023-03-21T09:15:53.230Z,64.78
2023-03-21T09:17:21.122Z,64.89
2023-03-21T09:18:47.500Z,64.81
2023-03-21T09:20:11.898Z,64.48
2023-03-21T09:21:34.361Z,64.43
2023-03-21T09:22:57.067Z,63.72
2023-03-21T09:24:19.543Z,63.00
2023-03-21T09:25:46.255Z,62.55
2023-03-21T09:27:08.805Z,62.29
2023-03-21T09:28:31.697Z,61.79
2023-03-21T09:29:54.339Z,61.63
2023-03-21T09:31:23.081Z,61.13
2023-03-21T09:32:50.933Z,61.08
2023-03-21T09:34:17.833Z,60.84
2023-03-21T09:35:41.247Z,60.51
2023-03-21T09:37:11.354Z,60.15
2023-03-21T09:38:36.982Z,60.25
2023-03-21T09:39:59.736Z,59.85
2023-03-21T09:41:51.849Z,59.48
2023-03-21T09:43:27.801Z,59.51
2023-03-21T09:45:06.707Z,58.88
2023-03-21T09:46:38.609Z,58.70
2023-03-21T09:48:04.058Z,58.48
2023-03-21T09:50:01.727Z,58.20
2023-03-21T09:51:37.210Z,58.35
2023-03-21T09:53:06.972Z,57.60
2023-03-21T09:54:48.096Z,56.55
2023-03-21T09:56:14.350Z,55.77
2023-03-21T09:57:43.546Z,55.18
2023-03-21T09:59:10.723Z,55.03
2023-03-21T10:00:38.745Z,55.03
2023-03-21T10:02:03.483Z,54.66
2023-03-21T10:03:27.668Z,54.28
2023-03-21T10:04:50.653Z,54.25
2023-03-21T10:06:16.610Z,53.05
2023-03-21T10:07:49.154Z,53.02
2023-03-21T10:09:17.374Z,52.84
2023-03-21T10:10:48.999Z,53.18
2023-03-21T10:12:21.239Z,52.82
2023-03-21T10:13:59.088Z,52.24
2023-03-21T10:15:23.844Z,52.07
2023-03-21T10:16:50.648Z,52.11
2023-03-21T10:18:22.518Z,51.45
2023-03-21T10:19:47.049Z,51.83
2023-03-21T10:21:37.225Z,51.12
2023-03-21T10:23:03.016Z,51.17
2023-03-21T10:24:39.011Z,49.88
2023-03-21T10:26:06.217Z,47.87
2023-03-21T10:27:32.901Z,47.72
2023-03-21T10:29:03.175Z,48.06
2023-03-21T10:30:43.523Z,47.85
2023-03-21T10:32:08.268Z,47.30
2023-03-21T10:33:37.683Z,46.61
2023-03-21T10:35:04.337Z,46.12
2023-03-21T10:36:32.093Z,45.95
2023-03-21T10:37:54.972Z,46.04
2023-03-21T10:39:37.950Z,46.05
2023-03-21T10:41:03.518Z,45.36
2023-03-21T10:42:33.540Z,43.87
2023-03-21T10:44:17.721Z,43.30
2023-03-21T10:45:41.113Z,44.17
2023-03-21T10:47:14.386Z,43.98
2023-03-21T10:48:39.175Z,43.91
2023-03-21T10:50:16.529Z,43.64
2023-03-21T10:51:43.155Z,44.06
2023-03-21T10:53:22.877Z,44.47
2023-03-21T10:54:48.619Z,44.51
2023-03-21T10:56:14.954Z,44.51
2023-03-21T10:57:38.552Z,44.44
2023-03-21T10:59:02.880Z,44.46
2023-03-21T11:00:33.888Z,44.26
2023-03-21T11:02:02.726Z,44.59
2023-03-21T11:03:29.435Z,44.38
2023-03-21T11:04:53.330Z,44.03
2023-03-21T11:06:19.190Z,44.60
2023-03-21T11:07:41.049Z,44.81
2023-03-21T11:09:06.363Z,46.39
2023-03-21T11:10:34.449Z,46.35
2023-03-21T11:12:03.554Z,46.47
2023-03-21T11:13:27.726Z,45.93
2023-03-21T11:14:51.545Z,45.74
2023-03-21T11:16:26.317Z,45.89
2023-03-21T11:17:49.128Z,45.74
2023-03-21T11:19:16.672Z,45.87
2023-03-21T11:20:45.949Z,46.24
2023-03-21T11:22:09.689Z,46.15
2023-03-21T11:23:33.240Z,46.33
2023-03-21T11:25:00.903Z,46.15
2023-03-21T11:26:27.568Z,46.50
2023-03-21T11:27:52.011Z,46.21
2023-03-21T11:29:27.624Z,46.29
2023-03-21T11:30:59.112Z,45.97
2023-03-21T11:35:26.429Z,46.91
2023-03-21T11:36:52.490Z,46.65
2023-03-21T11:38:29.194Z,47.06
2023-03-21T11:39:56.806Z,46.57
2023-03-21T11:41:24.956Z,46.83
2023-03-21T11:42:49.951Z,46.95
2023-03-21T11:44:28.536Z,46.93
2023-03-21T11:45:58.393Z,46.43
2023-03-21T11:47:24.214Z,46.50
2023-03-21T11:49:00.068Z,46.26
2023-03-21T11:50:33.992Z,46.21
2023-03-21T11:52:18.728Z,46.24
2023-03-21T11:53:50.556Z,46.09
2023-03-21T11:55:26.331Z,46.14
2023-03-21T11:56:52.328Z,45.79
2023-03-21T11:58:34.216Z,45.75
2023-03-21T12:00:10.760Z,46.40
2023-03-21T12:01:39.138Z,46.38
2023-03-21T12:03:47.273Z,46.28
2023-03-21T12:05:29.201Z,46.15
2023-03-21T12:07:01.886Z,46.42
2023-03-21T12:08:38.414Z,46.74
2023-03-21T12:10:19.692Z,46.27
2023-03-21T12:11:52.570Z,46.39
2023-03-21T12:13:34.492Z,46.25
2023-03-21T12:15:04.806Z,46.42
2023-03-21T12:16:36.929Z,46.19
2023-03-21T12:18:08.358Z,46.88
2023-03-21T12:19:53.601Z,46.15
2023-03-21T12:21:21.717Z,45.91
2023-03-21T12:22:58.143Z,46.09
2023-03-21T12:24:26.406Z,45.66
2023-03-21T12:25:56.827Z,45.98
2023-03-21T12:27:31.907Z,45.92
2023-03-21T12:29:14.605Z,45.74
2023-03-21T12:30:49.833Z,46.13
2023-03-21T12:32:25.920Z,45.68
2023-03-21T12:34:00.250Z,44.97
2023-03-21T12:35:36.645Z,45.22
2023-03-21T12:37:15.501Z,45.37
2023-03-21T12:38:45.449Z,44.54
2023-03-21T12:40:21.675Z,44.19
2023-03-21T12:42:00.608Z,43.87
2023-03-21T12:43:32.756Z,44.40
2023-03-21T12:45:06.291Z,44.28
2023-03-21T12:46:41.157Z,43.95
2023-03-21T12:48:19.729Z,43.46
2023-03-21T12:49:49.521Z,43.56
2023-03-21T12:51:16.919Z,43.38
2023-03-21T12:52:43.992Z,42.86
2023-03-21T12:54:23.004Z,42.64
2023-03-21T12:55:46.591Z,42.95
2023-03-21T12:57:18.101Z,43.12
2023-03-21T12:58:48.101Z,42.98
2023-03-21T13:00:17.813Z,42.81
2023-03-21T13:01:41.965Z,42.40
2023-03-21T13:03:07.085Z,42.02
2023-03-21T13:04:51.623Z,42.65
2023-03-21T13:06:15.651Z,42.88
2023-03-21T13:07:43.215Z,42.77
2023-03-21T13:09:25.781Z,42.81
2023-03-21T13:10:53.961Z,43.21
2023-03-21T13:12:47.460Z,42.69
2023-03-21T13:14:18.864Z,43.38
2023-03-21T13:16:23.537Z,43.42
2023-03-21T13:17:47.544Z,42.92
2023-03-21T13:19:26.085Z,42.23
2023-03-21T13:20:53.285Z,42.29
2023-03-21T13:22:26.759Z,42.65
2023-03-21T13:24:28.295Z,42.90
2023-03-21T13:26:22.633Z,43.18
2023-03-21T13:30:40.166Z,43.53
2023-03-21T13:32:12.758Z,43.73
2023-03-21T13:37:22.928Z,44.17
2023-03-21T13:38:51.963Z,44.59
2023-03-21T13:40:26.541Z,44.21
2023-03-21T13:41:50.915Z,44.48
2023-03-21T13:43:43.783Z,44.34
2023-03-21T13:45:12.149Z,44.57
2023-03-21T13:46:54.021Z,44.65
2023-03-21T13:48:30.157Z,45.14
2023-03-21T13:50:16.726Z,44.94
2023-03-21T13:51:53.592Z,45.63
2023-03-21T13:53:24.755Z,45.20
2023-03-21T13:54:53.500Z,45.35
2023-03-21T13:56:28.377Z,45.21
2023-03-21T13:57:50.471Z,45.35
2023-03-21T13:59:14.022Z,45.06
2023-03-21T14:00:41.384Z,45.12
2023-03-21T14:02:23.473Z,45.60
2023-03-21T14:03:47.234Z,45.22
2023-03-21T14:05:22.093Z,45.40
2023-03-21T14:06:51.547Z,45.68
2023-03-21T14:08:31.223Z,45.38
2023-03-21T14:10:01.365Z,45.19
2023-03-21T14:11:25.305Z,44.93
2023-03-21T14:12:47.934Z,44.74
2023-03-21T14:14:11.053Z,44.86
2023-03-21T14:15:53.143Z,44.84
2023-03-21T14:17:24.800Z,45.27
2023-03-21T14:18:55.093Z,44.96
2023-03-21T14:20:21.659Z,45.05
2023-03-21T14:21:51.671Z,44.65
2023-03-21T14:23:16.458Z,44.74
2023-03-21T14:24:38.792Z,44.48
2023-03-21T14:26:01.525Z,44.46
2023-03-21T14:27:29.163Z,44.47
2023-03-21T14:28:53.441Z,44.51
2023-03-21T14:30:23.186Z,44.75
2023-03-21T14:31:48.467Z,44.66
2023-03-21T14:33:18.549Z,44.54
2023-03-21T14:34:43.085Z,44.78
2023-03-21T14:36:14.966Z,44.46
2023-03-21T14:37:42.495Z,44.93
2023-03-21T14:39:07.477Z,44.90
2023-03-21T14:40:31.155Z,44.78
2023-03-21T14:41:55.159Z,45.24
2023-03-21T14:43:23.338Z,45.49
2023-03-21T14:44:55.942Z,45.51
2023-03-21T14:46:26.161Z,45.40
2023-03-21T14:48:01.657Z,45.69
2023-03-21T14:49:30.851Z,45.74
2023-03-21T14:50:56.040Z,45.97
2023-03-21T14:52:25.642Z,46.22
2023-03-21T14:53:46.946Z,46.48
2023-03-21T14:55:16.980Z,46.24
2023-03-21T14:56:42.772Z,46.76
2023-03-21T14:58:10.120Z,46.91
2023-03-21T14:59:37.186Z,47.11
2023-03-21T15:01:04.222Z,47.52
2023-03-21T15:02:30.364Z,47.65
2023-03-21T15:03:53.401Z,47.93
2023-03-21T15:05:21.848Z,47.77
2023-03-21T15:07:02.488Z,47.43
2023-03-21T15:08:30.092Z,48.07
2023-03-21T15:09:55.998Z,48.11
2023-03-21T15:11:21.921Z,48.22
2023-03-21T15:13:03.337Z,48.21
2023-03-21T15:14:34.369Z,48.23
2023-03-21T15:16:06.050Z,48.53
2023-03-21T15:17:40.060Z,48.36
2023-03-21T15:19:05.491Z,48.59
2023-03-21T15:20:36.730Z,48.81
2023-03-21T15:22:15.944Z,48.75
2023-03-21T15:23:41.678Z,48.81
2023-03-21T15:25:05.994Z,48.72
2023-03-21T15:26:28.986Z,48.53
2023-03-21T15:27:57.266Z,48.53
2023-03-21T15:29:21.671Z,48.73
2023-03-21T15:30:53.343Z,48.61
2023-03-21T15:32:22.751Z,48.60
2023-03-21T15:33:51.363Z,49.01
2023-03-21T15:35:22.118Z,49.34
2023-03-21T15:36:50.996Z,49.63
2023-03-21T15:38:40.197Z,49.74
2023-03-21T15:40:17.078Z,50.00
2023-03-21T15:41:42.817Z,49.75
2023-03-21T15:43:15.410Z,50.16
2023-03-21T15:44:40.851Z,50.15
2023-03-21T15:46:20.821Z,50.12
2023-03-21T15:48:17.260Z,49.88
2023-03-21T15:50:08.834Z,49.91
2023-03-21T15:51:46.863Z,50.05
2023-03-21T15:53:25.285Z,49.94
2023-03-21T15:55:11.432Z,49.85
2023-03-21T15:56:38.250Z,50.34
2023-03-21T15:58:07.508Z,50.35
2023-03-21T15:59:37.901Z,50.55
2023-03-21T16:01:06.534Z,50.45
2023-03-21T16:02:32.406Z,50.92
2023-03-21T16:04:03.502Z,51.06
2023-03-21T16:05:28.815Z,51.25
2023-03-21T16:06:58.729Z,50.85
2023-03-21T16:08:24.082Z,51.04
2023-03-21T16:09:48.289Z,51.50
2023-03-21T16:11:19.530Z,51.93
2023-03-21T16:12:43.272Z,51.53
2023-03-21T16:14:07.107Z,51.53
2023-03-21T16:15:34.930Z,51.61
2023-03-21T16:16:59.317Z,51.88
2023-03-21T16:18:20.635Z,51.91
2023-03-21T16:19:45.651Z,51.89
2023-03-21T16:21:17.804Z,52.32
2023-03-21T16:22:44.853Z,52.00
2023-03-21T16:24:11.875Z,52.27
2023-03-21T16:25:35.899Z,52.04
2023-03-21T16:27:02.981Z,52.33
2023-03-21T16:28:32.024Z,52.22
2023-03-21T16:29:54.620Z,51.97
2023-03-21T16:31:24.487Z,51.88
2023-03-21T16:33:16.621Z,52.55
2023-03-21T16:34:54.347Z,52.86
2023-03-21T16:36:22.943Z,52.79
2023-03-21T16:37:46.028Z,53.16
2023-03-21T16:39:18.275Z,53.31
2023-03-21T16:40:41.473Z,53.28
2023-03-21T16:42:03.775Z,53.38
2023-03-21T16:43:27.254Z,53.24
2023-03-21T16:44:51.974Z,53.26
2023-03-21T16:46:30.196Z,53.42
2023-03-21T16:47:58.060Z,53.60
2023-03-21T16:49:26.017Z,53.42
2023-03-21T16:50:53.345Z,53.39
2023-03-21T16:52:26.352Z,53.06
2023-03-21T16:53:56.254Z,53.35
2023-03-21T16:55:27.331Z,53.75
2023-03-21T16:56:54.053Z,53.62
2023-03-21T16:58:17.534Z,53.70
2023-03-21T16:59:41.099Z,53.92
2023-03-21T17:01:03.464Z,53.86
2023-03-21T17:02:30.168Z,53.68
2023-03-21T17:04:08.348Z,54.02
2023-03-21T17:05:32.156Z,53.99
2023-03-21T17:06:56.063Z,54.36
2023-03-21T17:11:02.690Z,54.37
2023-03-21T17:12:48.739Z,54.43
2023-03-21T17:14:18.136Z,54.61
2023-03-21T17:15:41.801Z,54.56
2023-03-21T17:17:04.928Z,54.78
2023-03-21T17:18:31.022Z,54.87
2023-03-21T17:19:53.410Z,54.85
2023-03-21T17:21:19.828Z,55.39
2023-03-21T17:22:46.344Z,55.47
2023-03-21T17:24:09.428Z,55.42
2023-03-21T17:25:35.899Z,55.23
2023-03-21T17:26:59.295Z,55.31
2023-03-21T17:28:20.377Z,55.24
2023-03-21T17:29:45.607Z,55.00
2023-03-21T17:31:17.952Z,55.07
2023-03-21T17:32:41.161Z,54.89
2023-03-21T17:34:04.630Z,55.19
2023-03-21T17:35:29.041Z,55.31
2023-03-21T17:36:54.915Z,54.98
2023-03-21T17:38:22.381Z,55.26
2023-03-21T17:39:51.065Z,55.46
2023-03-21T17:41:18.676Z,55.44
2023-03-21T17:42:49.405Z,55.52
2023-03-21T17:44:17.934Z,55.39
2023-03-21T17:45:40.215Z,55.41
2023-03-21T17:47:06.064Z,55.50
2023-03-21T17:48:30.597Z,55.46
2023-03-21T17:49:54.706Z,55.85
2023-03-21T17:51:23.223Z,55.79
2023-03-21T17:52:49.628Z,56.31
2023-03-21T17:54:15.022Z,56.06
2023-03-21T17:55:44.382Z,56.02
2023-03-21T17:57:19.514Z,56.19
2023-03-21T17:58:45.251Z,56.26
2023-03-21T18:00:13.181Z,56.27
2023-03-21T18:01:36.633Z,56.70
2023-03-21T18:03:04.428Z,57.02
2023-03-21T18:04:30.335Z,57.05
2023-03-21T18:05:52.853Z,57.31
2023-03-21T18:07:28.634Z,57.33
2023-03-21T18:09:00.383Z,57.51
2023-03-21T18:10:26.743Z,57.93
2023-03-21T18:11:50.162Z,58.23
2023-03-21T18:13:25.554Z,58.41
2023-03-21T18:14:50.203Z,58.74
2023-03-21T18:16:45.426Z,59.07
2023-03-21T18:18:13.062Z,59.21
2023-03-21T18:19:38.731Z,59.18
2023-03-21T18:21:10.963Z,59.54
2023-03-21T18:22:33.740Z,59.67
2023-03-21T18:23:57.820Z,59.81
2023-03-21T18:25:20.611Z,60.33
2023-03-21T18:26:46.205Z,60.29
2023-03-21T18:28:21.402Z,60.50
2023-03-21T18:30:28.898Z,60.49
2023-03-21T18:31:37.221Z,60.84
2023-03-21T18:33:00.162Z,60.82
2023-03-21T18:34:30.179Z,61.18
2023-03-21T18:35:58.793Z,61.02
2023-03-21T18:37:22.890Z,61.15
2023-03-21T18:38:51.378Z,61.18
2023-03-21T18:40:22.921Z,61.26
2023-03-21T18:42:04.144Z,61.23
2023-03-21T18:45:27.201Z,61.19
2023-03-21T18:47:13.944Z,61.33
2023-03-21T18:48:40.344Z,61.23
2023-03-21T18:50:14.120Z,61.10
2023-03-21T18:51:50.982Z,61.27
2023-03-21T18:53:24.344Z,61.66
2023-03-21T18:54:49.463Z,61.54
2023-03-21T18:57:13.124Z,61.46
2023-03-21T18:58:19.436Z,61.35
2023-03-21T18:59:52.798Z,61.38
2023-03-21T19:01:18.465Z,61.35
2023-03-21T19:02:46.736Z,61.38
2023-03-21T19:04:25.556Z,61.38
2023-03-21T19:05:54.566Z,61.74
2023-03-21T19:07:22.204Z,62.01
2023-03-21T19:08:50.215Z,61.95
2023-03-21T19:10:18.594Z,61.90
2023-03-21T19:11:51.749Z,61.85
2023-03-21T19:13:30.658Z,61.85
2023-03-21T19:15:37.964Z,61.89
2023-03-21T19:21:15.919Z,61.67
2023-03-21T19:22:38.336Z,61.71
2023-03-21T19:24:26.647Z,62.03
2023-03-21T19:25:50.946Z,61.89